Terminal Aerodrome Forecast
Issued by NWS State College, PA

Home | Current Version | Previous Version | Text Only | Print | Product List | Glossary On
Versions: 1 2 3 4 5 6 7 8 9 10 11 12 13 14 15 16 17 18 19 20 21 22 23 24
000
FTUS41 KCTP 252141 AAA
TAFIPT
TAF AMD
KIPT 252141Z 2522/2618 34007KT P6SM BKN040 OVC070
     FM260100 36004KT P6SM OVC025
     FM260400 06002KT 4SM -DZ BR OVC015=

USA.gov is the U.S. government's official web portal to all federal, state and local government web resources and services.